Time;durP1;ratioP1;P1;durP2;ratioP2;P2;SDS_P1;SDS_P2;PMS_P1;PMS_P2;Temp;Humidity;BMP_temperature;BMP_pressure;BME280_temperature;BME280_humidity;BME280_pressure;Samples;Min_cycle;Max_cycle;Signal;HPM_P1;HPM_P2
2022/07/20 00:01:32;;;;;;;8.73;7.83;;;25.80;52.40;;;;;;5096603;28;20530;-69
2022/07/20 00:03:59;;;;;;;13.20;8.80;;;25.80;53.10;;;;;;5096181;28;20460;-69
2022/07/20 00:06:26;;;;;;;10.00;8.17;;;25.70;53.10;;;;;;5096556;28;20574;-69
2022/07/20 00:11:38;;;;;;;8.97;8.20;;;25.60;53.90;;;;;;5096880;28;20813;-69
2022/07/20 00:14:06;;;;;;;10.47;9.37;;;25.70;53.80;;;;;;5096094;28;20566;-69
2022/07/20 00:16:34;;;;;;;9.60;8.60;;;25.60;53.70;;;;;;5096477;28;20526;-69
2022/07/20 00:19:01;;;;;;;10.47;9.13;;;25.60;54.00;;;;;;5096487;28;20510;-69
2022/07/20 00:21:29;;;;;;;9.97;8.80;;;25.70;54.10;;;;;;5096358;28;20854;-69
2022/07/20 00:23:55;;;;;;;9.70;8.70;;;25.70;54.30;;;;;;5096195;28;20465;-69
2022/07/20 00:26:22;;;;;;;12.60;8.90;;;25.70;54.80;;;;;;5096209;28;20482;-69
2022/07/20 00:28:51;;;;;;;10.17;9.03;;;25.80;54.40;;;;;;5096179;28;20535;-69
2022/07/20 00:31:18;;;;;;;8.93;7.77;;;25.80;54.60;;;;;;5095879;28;20444;-69
2022/07/20 00:33:46;;;;;;;9.57;8.20;;;25.80;54.20;;;;;;5095652;28;20554;-69
2022/07/20 00:36:13;;;;;;;9.07;8.17;;;25.80;54.70;;;;;;5095889;28;20446;-69
2022/07/20 00:38:40;;;;;;;9.27;7.80;;;25.80;54.70;;;;;;5095935;28;20451;-69
2022/07/20 00:41:07;;;;;;;8.80;7.90;;;25.70;54.60;;;;;;5095989;28;20543;-69
2022/07/20 00:44:01;;;;;;;10.13;7.17;;;25.70;54.10;;;;;;5095845;28;20475;-68
2022/07/20 00:46:30;;;;;;;8.00;7.30;;;25.60;54.40;;;;;;5095659;28;20521;-68
2022/07/20 00:48:57;;;;;;;7.63;6.90;;;25.60;54.50;;;;;;5095804;28;20439;-68
2022/07/20 00:51:24;;;;;;;7.53;6.90;;;25.60;54.50;;;;;;5095780;28;20855;-68
2022/07/20 00:53:52;;;;;;;7.10;6.40;;;25.50;54.80;;;;;;5095228;28;21107;-68
2022/07/20 00:56:20;;;;;;;7.73;6.93;;;25.50;54.30;;;;;;5095653;28;20446;-68
2022/07/20 00:58:48;;;;;;;8.80;6.83;;;25.50;54.50;;;;;;5095643;28;20447;-68
2022/07/20 01:01:17;;;;;;;6.37;5.70;;;25.30;54.60;;;;;;5095409;28;20518;-68
2022/07/20 01:03:44;;;;;;;6.70;6.10;;;25.30;54.80;;;;;;5095246;28;20554;-68
2022/07/20 01:06:12;;;;;;;7.13;6.37;;;25.30;54.60;;;;;;5095561;28;20471;-68
2022/07/20 01:08:39;;;;;;;7.07;6.40;;;25.20;54.70;;;;;;5095344;28;20534;-68
2022/07/20 01:11:06;;;;;;;7.17;6.03;;;25.10;55.00;;;;;;5095384;28;20543;-68
2022/07/20 01:13:34;;;;;;;7.70;6.50;;;25.10;55.70;;;;;;5095276;28;20471;-68
2022/07/20 01:16:00;;;;;;;18.80;7.40;;;25.10;55.70;;;;;;5095199;28;20486;-68
2022/07/20 01:18:29;;;;;;;7.30;6.60;;;24.90;56.30;;;;;;5095433;28;20533;-68
2022/07/20 01:21:02;;;;;;;7.50;6.80;;;25.00;56.20;;;;;;5095276;28;20455;-68
2022/07/20 01:23:29;;;;;;;7.40;6.70;;;25.00;55.60;;;;;;5095271;28;20499;-68
2022/07/20 01:25:57;;;;;;;8.97;6.00;;;25.00;55.30;;;;;;5094954;28;20554;-68
2022/07/20 01:28:24;;;;;;;6.60;5.90;;;24.90;55.50;;;;;;5095312;28;20530;-68
2022/07/20 01:30:51;;;;;;;9.00;6.60;;;25.00;55.90;;;;;;5094822;28;20504;-68
2022/07/20 01:33:18;;;;;;;6.53;5.93;;;25.00;55.50;;;;;;5094879;28;20546;-68
2022/07/20 01:35:45;;;;;;;6.27;5.77;;;25.00;55.70;;;;;;5094747;28;20550;-68
2022/07/20 01:38:13;;;;;;;6.30;5.80;;;25.00;56.30;;;;;;5094871;28;20533;-68
2022/07/20 01:40:40;;;;;;;6.60;5.60;;;25.00;55.70;;;;;;5094837;28;20996;-68
2022/07/20 01:43:07;;;;;;;7.77;6.07;;;25.00;55.60;;;;;;5094713;28;20897;-68
2022/07/20 01:45:35;;;;;;;7.10;6.50;;;25.00;56.40;;;;;;5093648;28;21035;-68
2022/07/20 01:48:02;;;;;;;7.57;6.80;;;24.90;55.80;;;;;;5094426;28;20568;-69
2022/07/20 01:50:29;;;;;;;7.47;6.77;;;24.90;55.90;;;;;;5094674;28;20629;-68
2022/07/20 01:52:55;;;;;;;9.03;8.17;;;24.80;56.40;;;;;;5094527;28;20558;-68
2022/07/20 01:55:24;;;;;;;10.63;7.90;;;24.70;57.50;;;;;;5094544;28;20523;-68
2022/07/20 01:57:50;;;;;;;7.80;7.00;;;24.80;58.50;;;;;;5095200;28;20431;-69
2022/07/20 02:00:17;;;;;;;8.17;7.47;;;24.70;58.60;;;;;;5094550;28;20443;-69
2022/07/20 02:02:44;;;;;;;7.77;7.00;;;24.60;57.90;;;;;;5094240;28;20548;-69
2022/07/20 02:05:11;;;;;;;8.40;7.00;;;24.50;58.60;;;;;;5094187;28;20532;-69
2022/07/20 02:07:39;;;;;;;7.83;7.03;;;24.60;58.80;;;;;;5094234;28;20478;-69
2022/07/20 02:10:09;;;;;;;9.67;7.33;;;24.50;58.00;;;;;;5094319;28;20861;-69
2022/07/20 02:12:37;;;;;;;8.20;6.77;;;24.50;58.20;;;;;;5094171;28;20549;-69
2022/07/20 02:15:05;;;;;;;6.50;5.90;;;24.50;57.90;;;;;;5093882;28;20983;-69
2022/07/20 02:17:32;;;;;;;7.30;6.00;;;24.40;57.90;;;;;;5094403;28;20520;-69
2022/07/20 02:19:59;;;;;;;6.73;6.13;;;24.30;58.00;;;;;;5094205;28;20536;-69
2022/07/20 02:22:27;;;;;;;7.10;6.40;;;24.30;57.80;;;;;;5094178;28;20518;-69
2022/07/20 02:24:54;;;;;;;7.23;5.57;;;24.30;57.90;;;;;;5093748;28;20455;-69
2022/07/20 02:27:21;;;;;;;7.70;6.20;;;24.30;58.00;;;;;;5094080;28;20561;-69
2022/07/20 02:29:49;;;;;;;6.90;6.20;;;24.30;58.70;;;;;;5094025;28;20447;-69
2022/07/20 02:32:16;;;;;;;6.60;6.10;;;24.30;59.20;;;;;;5093864;28;20529;-69
2022/07/20 02:34:42;;;;;;;7.53;6.80;;;24.30;58.90;;;;;;5093748;28;20537;-69
2022/07/20 02:37:09;;;;;;;7.03;6.33;;;24.30;58.50;;;;;;5093921;28;20813;-69
2022/07/20 02:39:36;;;;;;;8.10;6.73;;;24.30;59.50;;;;;;5093764;28;21028;-69
2022/07/20 02:42:03;;;;;;;7.27;6.50;;;24.20;59.60;;;;;;5094021;28;20540;-68
2022/07/20 02:44:30;;;;;;;7.53;6.77;;;24.10;59.00;;;;;;5093480;28;20552;-69
2022/07/20 02:46:58;;;;;;;7.40;6.30;;;24.20;60.00;;;;;;5093705;28;20521;-69
2022/07/20 02:49:25;;;;;;;7.57;6.00;;;24.20;59.90;;;;;;5093706;28;20442;-69
2022/07/20 02:51:52;;;;;;;6.83;6.23;;;24.20;59.70;;;;;;5093595;28;20921;-69
2022/07/20 02:54:19;;;;;;;6.77;6.10;;;24.20;59.60;;;;;;5093307;28;20473;-69
2022/07/20 02:56:45;;;;;;;6.30;5.70;;;24.10;60.10;;;;;;5096599;28;20469;-69
2022/07/20 02:59:12;;;;;;;6.07;5.57;;;24.00;59.50;;;;;;5097916;28;20525;-69
2022/07/20 03:01:39;;;;;;;6.83;5.90;;;24.00;59.90;;;;;;5097874;28;20532;-69
2022/07/20 03:04:07;;;;;;;6.37;5.80;;;24.00;60.30;;;;;;5097652;28;20892;-69
2022/07/20 03:06:34;;;;;;;5.20;4.80;;;23.90;60.10;;;;;;5097707;28;20576;-69
2022/07/20 03:09:01;;;;;;;6.07;5.47;;;23.90;60.70;;;;;;5097757;28;20531;-68
2022/07/20 03:11:28;;;;;;;6.67;6.03;;;23.80;60.50;;;;;;5097617;28;20529;-69
2022/07/20 03:13:55;;;;;;;5.60;5.10;;;23.80;61.10;;;;;;5097986;28;20462;-68
2022/07/20 03:16:22;;;;;;;6.43;5.50;;;23.60;61.50;;;;;;5097408;28;20537;-68
2022/07/20 03:18:48;;;;;;;6.37;5.77;;;23.60;61.50;;;;;;5097546;28;20442;-69
2022/07/20 03:21:17;;;;;;;6.17;5.40;;;23.60;62.30;;;;;;5097512;28;20442;-68
2022/07/20 03:23:44;;;;;;;6.57;5.90;;;23.60;63.00;;;;;;5096981;28;20982;-70
2022/07/20 03:26:10;;;;;;;6.50;5.90;;;23.60;62.50;;;;;;5097491;28;20543;-69
2022/07/20 03:28:37;;;;;;;5.80;5.20;;;23.60;63.40;;;;;;5097337;28;20472;-69
2022/07/20 03:31:04;;;;;;;8.77;5.67;;;23.60;62.70;;;;;;5097116;28;20527;-69
2022/07/20 03:33:31;;;;;;;5.80;5.20;;;23.50;62.60;;;;;;5097214;28;20552;-68
2022/07/20 03:35:58;;;;;;;6.20;5.60;;;23.60;62.60;;;;;;5097373;28;20535;-68
2022/07/20 03:38:26;;;;;;;5.70;5.30;;;23.40;62.40;;;;;;5097331;28;20444;-68
2022/07/20 03:40:53;;;;;;;6.23;5.73;;;23.40;62.60;;;;;;5097157;28;20479;-68
2022/07/20 03:43:21;;;;;;;6.33;5.73;;;23.40;62.80;;;;;;5097334;28;20469;-68
2022/07/20 03:45:48;;;;;;;6.20;5.70;;;23.30;63.50;;;;;;5097357;28;20906;-69
2022/07/20 03:48:15;;;;;;;7.50;5.40;;;23.20;64.00;;;;;;5096965;28;20483;-69
2022/07/20 03:50:42;;;;;;;6.37;5.60;;;23.00;65.00;;;;;;5096971;28;20539;-68
2022/07/20 03:53:09;;;;;;;7.50;6.70;;;23.00;65.30;;;;;;5096709;28;20559;-68
2022/07/20 03:55:37;;;;;;;5.97;5.43;;;23.10;65.50;;;;;;5096926;28;20531;-68
2022/07/20 03:58:04;;;;;;;7.60;5.40;;;23.00;66.00;;;;;;5096972;28;20531;-69
2022/07/20 04:00:31;;;;;;;6.63;5.93;;;23.10;65.80;;;;;;5096985;28;20526;-68
2022/07/20 04:02:58;;;;;;;5.83;5.33;;;23.10;66.30;;;;;;5096760;28;20474;-69
2022/07/20 04:05:25;;;;;;;6.30;5.70;;;23.20;65.80;;;;;;5096803;28;20527;-69
2022/07/20 04:07:52;;;;;;;6.57;5.83;;;23.20;66.60;;;;;;5095941;28;20572;-69
2022/07/20 04:10:19;;;;;;;6.83;5.60;;;23.20;66.50;;;;;;5096805;28;20528;-69
2022/07/20 04:12:47;;;;;;;6.23;5.50;;;23.20;66.50;;;;;;5096557;28;20460;-69
2022/07/20 04:15:14;;;;;;;7.30;5.60;;;23.30;66.10;;;;;;5096637;28;20472;-69
2022/07/20 04:17:41;;;;;;;6.73;6.13;;;23.30;66.10;;;;;;5096851;28;20528;-69
2022/07/20 04:20:09;;;;;;;5.93;5.43;;;23.30;67.50;;;;;;5096597;28;20447;-69
2022/07/20 04:22:36;;;;;;;8.80;5.97;;;23.30;66.90;;;;;;5096375;28;20903;-69
2022/07/20 04:25:03;;;;;;;6.43;5.83;;;23.30;66.40;;;;;;5096580;28;20520;-68
2022/07/20 04:27:30;;;;;;;6.87;6.27;;;23.30;66.80;;;;;;5096311;28;20549;-69
2022/07/20 04:29:58;;;;;;;6.77;6.20;;;23.30;67.90;;;;;;5096398;28;20446;-69
2022/07/20 04:32:25;;;;;;;6.47;5.80;;;23.30;67.90;;;;;;5096226;28;20536;-69
2022/07/20 04:34:52;;;;;;;6.20;5.60;;;23.20;68.60;;;;;;5096140;28;20539;-69
2022/07/20 04:37:18;;;;;;;7.00;6.33;;;23.10;69.00;;;;;;5096428;28;20519;-69
2022/07/20 04:39:45;;;;;;;6.80;6.03;;;23.00;68.90;;;;;;5096297;28;20523;-69
2022/07/20 04:42:12;;;;;;;6.60;6.00;;;22.90;71.40;;;;;;5095930;28;21038;-69
2022/07/20 04:44:39;;;;;;;7.27;6.10;;;22.80;71.30;;;;;;5095795;28;20543;-69
2022/07/20 04:47:07;;;;;;;6.60;5.90;;;22.80;72.80;;;;;;5096106;28;20473;-69
2022/07/20 04:49:34;;;;;;;7.53;6.20;;;22.90;71.70;;;;;;5096207;28;20523;-69
2022/07/20 04:52:01;;;;;;;7.47;6.77;;;23.00;71.60;;;;;;5096052;28;20527;-69
2022/07/20 04:54:28;;;;;;;6.73;6.13;;;22.90;71.30;;;;;;5095584;28;21054;-69
2022/07/20 04:56:55;;;;;;;8.60;7.70;;;22.80;71.40;;;;;;5096196;28;20475;-68
2022/07/20 04:59:22;;;;;;;9.53;6.77;;;22.80;71.90;;;;;;5095656;28;20523;-69
2022/07/20 05:01:49;;;;;;;8.17;6.67;;;22.70;72.20;;;;;;5095893;28;20856;-69
2022/07/20 05:04:17;;;;;;;8.50;7.60;;;22.60;72.60;;;;;;5095502;28;20818;-69
2022/07/20 05:06:44;;;;;;;8.57;7.30;;;22.70;72.70;;;;;;5095475;28;20531;-69
2022/07/20 05:09:10;;;;;;;6.90;6.33;;;22.90;72.50;;;;;;5095251;28;20984;-69
2022/07/20 05:11:38;;;;;;;9.53;7.80;;;23.00;73.60;;;;;;5095474;28;20527;-68
2022/07/20 05:14:05;;;;;;;7.47;6.77;;;23.10;72.50;;;;;;5095069;28;20493;-69
2022/07/20 05:16:31;;;;;;;8.20;7.50;;;23.20;72.70;;;;;;5095245;28;20523;-69
2022/07/20 05:18:58;;;;;;;9.00;6.50;;;23.20;72.90;;;;;;5094112;28;20435;-69
2022/07/20 05:21:28;;;;;;;7.57;6.80;;;23.30;72.80;;;;;;5095111;28;20862;-68
2022/07/20 05:23:54;;;;;;;7.87;7.17;;;23.40;73.70;;;;;;5095011;28;20460;-69
2022/07/20 05:26:22;;;;;;;8.13;7.30;;;23.40;73.10;;;;;;5095118;28;20520;-68
2022/07/20 05:28:49;;;;;;;8.17;7.10;;;23.40;72.70;;;;;;5095000;28;20487;-68
2022/07/20 05:31:16;;;;;;;7.70;6.90;;;23.40;72.40;;;;;;5094732;28;20535;-69
2022/07/20 05:33:43;;;;;;;10.90;7.40;;;23.40;72.40;;;;;;5094796;28;20556;-70
2022/07/20 05:36:11;;;;;;;9.40;6.50;;;23.40;72.90;;;;;;5094700;28;20540;-69
2022/07/20 05:38:39;;;;;;;8.00;7.10;;;23.50;72.90;;;;;;5094879;28;20519;-69
2022/07/20 05:41:06;;;;;;;7.00;6.50;;;23.50;73.60;;;;;;5094787;28;20527;-68
2022/07/20 05:43:33;;;;;;;8.37;6.80;;;23.40;74.00;;;;;;5094629;28;20544;-69
2022/07/20 05:46:06;;;;;;;7.27;6.47;;;23.40;75.60;;;;;;5094836;28;20920;-68
2022/07/20 05:48:36;;;;;;;7.23;6.53;;;23.30;76.00;;;;;;5094934;28;20560;-68
2022/07/20 05:51:03;;;;;;;7.10;6.40;;;23.20;76.90;;;;;;5094844;28;20475;-68
2022/07/20 05:53:30;;;;;;;8.03;7.23;;;23.30;77.60;;;;;;5094186;28;21076;-68
2022/07/20 05:55:58;;;;;;;7.10;6.50;;;23.40;78.30;;;;;;5094527;28;21009;-68
2022/07/20 05:58:25;;;;;;;7.73;6.90;;;23.40;77.50;;;;;;5094176;28;20928;-68
2022/07/20 06:00:52;;;;;;;8.10;6.80;;;23.40;76.70;;;;;;5094511;28;20536;-69
2022/07/20 06:03:18;;;;;;;7.33;6.50;;;23.50;75.30;;;;;;5094025;28;20559;-69
2022/07/20 06:05:45;;;;;;;7.67;6.90;;;23.60;74.40;;;;;;5094223;28;20535;-69
2022/07/20 06:08:12;;;;;;;8.50;6.77;;;23.70;74.20;;;;;;5094269;28;20905;-69
2022/07/20 06:10:39;;;;;;;8.43;6.40;;;23.80;74.40;;;;;;5094304;28;20448;-69
2022/07/20 06:13:08;;;;;;;7.97;7.17;;;23.80;75.10;;;;;;5094343;28;20515;-69
2022/07/20 06:15:34;;;;;;;7.20;6.50;;;24.00;74.20;;;;;;5094093;28;20448;-69
2022/07/20 06:18:02;;;;;;;7.77;6.97;;;23.90;75.30;;;;;;5094199;28;20445;-68
2022/07/20 06:20:28;;;;;;;8.20;7.37;;;24.00;76.40;;;;;;5094135;28;20450;-68
2022/07/20 06:22:55;;;;;;;8.50;7.70;;;23.90;76.20;;;;;;5093957;28;21067;-70
2022/07/20 06:25:23;;;;;;;8.60;7.70;;;24.00;75.70;;;;;;5093968;28;20532;-68
2022/07/20 06:27:50;;;;;;;8.53;7.70;;;24.00;76.00;;;;;;5094200;28;20480;-68
2022/07/20 06:30:19;;;;;;;7.70;6.90;;;24.10;77.00;;;;;;5093702;28;20475;-68
2022/07/20 06:32:45;;;;;;;9.07;7.70;;;24.10;76.30;;;;;;5093641;28;20476;-68
2022/07/20 06:35:12;;;;;;;7.50;6.90;;;24.20;74.80;;;;;;5093570;28;20488;-69
2022/07/20 06:37:39;;;;;;;10.53;7.83;;;24.30;76.50;;;;;;5093838;28;20466;-69
2022/07/20 06:40:08;;;;;;;8.70;7.90;;;24.30;76.50;;;;;;5093575;28;20447;-68
2022/07/20 06:42:35;;;;;;;7.67;7.03;;;24.30;75.00;;;;;;5093727;28;20526;-69
2022/07/20 06:45:02;;;;;;;8.63;7.77;;;24.30;74.70;;;;;;5093869;28;20442;-68
2022/07/20 06:47:30;;;;;;;8.20;7.40;;;24.20;75.10;;;;;;5093665;28;20533;-69
2022/07/20 06:49:57;;;;;;;8.20;7.40;;;24.20;75.00;;;;;;5093797;28;20443;-68
2022/07/20 06:52:24;;;;;;;8.90;8.00;;;24.20;75.70;;;;;;5093501;28;20480;-69
2022/07/20 06:54:51;;;;;;;9.57;8.40;;;24.20;75.30;;;;;;5093680;28;20529;-68
2022/07/20 06:57:18;;;;;;;9.57;8.57;;;24.20;76.00;;;;;;5093659;28;20552;-68
2022/07/20 06:59:45;;;;;;;9.63;8.60;;;24.30;75.70;;;;;;5093494;28;20892;-69
2022/07/20 07:02:12;;;;;;;9.03;7.90;;;24.40;75.60;;;;;;5093650;28;20534;-68
2022/07/20 07:04:40;;;;;;;10.23;8.10;;;24.60;75.60;;;;;;5093439;28;20466;-68
2022/07/20 07:07:07;;;;;;;9.53;8.63;;;24.80;76.10;;;;;;5093775;28;20522;-68
2022/07/20 07:09:34;;;;;;;9.80;8.90;;;25.00;75.60;;;;;;5093535;28;20695;-69
2022/07/20 07:12:00;;;;;;;14.70;8.87;;;25.20;73.30;;;;;;5093601;28;20860;-68
2022/07/20 07:14:27;;;;;;;10.07;9.10;;;25.40;73.50;;;;;;5093338;28;20558;-68
2022/07/20 07:16:55;;;;;;;14.00;8.10;;;25.50;72.10;;;;;;5093497;28;20810;-68
2022/07/20 07:19:22;;;;;;;9.53;8.30;;;25.70;73.00;;;;;;5093218;28;20866;-68
2022/07/20 07:21:50;;;;;;;10.23;9.30;;;25.80;73.50;;;;;;5093219;28;20539;-68
2022/07/20 07:24:16;;;;;;;11.90;9.00;;;26.00;72.10;;;;;;5093011;28;20500;-69
2022/07/20 07:26:44;;;;;;;9.00;8.30;;;26.20;70.50;;;;;;5093433;28;20532;-68
2022/07/20 07:29:14;;;;;;;12.27;10.40;;;26.30;70.20;;;;;;5093395;28;20578;-68
2022/07/20 07:31:41;;;;;;;10.07;9.17;;;26.40;69.60;;;;;;5093657;28;20485;-69
2022/07/20 07:34:08;;;;;;;9.57;8.67;;;26.50;68.80;;;;;;5092937;28;20463;-69
2022/07/20 07:36:35;;;;;;;10.37;9.30;;;26.60;69.90;;;;;;5093594;28;20526;-69
2022/07/20 07:39:04;;;;;;;10.60;9.60;;;26.70;69.90;;;;;;5093341;28;20523;-68
2022/07/20 07:41:31;;;;;;;10.70;9.60;;;26.80;69.50;;;;;;5093275;28;20475;-68
2022/07/20 07:43:58;;;;;;;10.30;9.40;;;26.90;67.80;;;;;;5095962;28;20546;-69
2022/07/20 07:46:25;;;;;;;9.70;8.70;;;27.10;68.10;;;;;;5097153;28;20526;-68
2022/07/20 07:48:52;;;;;;;10.70;9.10;;;27.30;68.70;;;;;;5096902;28;20471;-68
2022/07/20 07:51:19;;;;;;;10.73;9.70;;;27.70;65.80;;;;;;5096968;28;20471;-68
2022/07/20 07:53:46;;;;;;;9.73;8.73;;;28.20;63.70;;;;;;5096460;28;20569;-68
2022/07/20 07:56:14;;;;;;;10.40;9.40;;;29.10;61.30;;;;;;5096973;28;20530;-68
2022/07/20 07:58:41;;;;;;;13.07;8.90;;;30.20;58.10;;;;;;5097254;28;20436;-69
2022/07/20 08:01:08;;;;;;;10.20;9.20;;;30.70;56.70;;;;;;5096447;28;20531;-69
2022/07/20 08:03:35;;;;;;;12.23;9.23;;;30.90;56.70;;;;;;5096759;28;20901;-69
2022/07/20 08:06:02;;;;;;;10.63;9.53;;;30.60;57.40;;;;;;5096557;28;20531;-69
2022/07/20 08:08:29;;;;;;;10.53;9.43;;;30.80;56.00;;;;;;5096556;28;20482;-69
2022/07/20 08:10:56;;;;;;;12.20;9.27;;;31.10;55.40;;;;;;5096605;28;20440;-69
2022/07/20 08:13:24;;;;;;;10.20;9.20;;;31.20;55.00;;;;;;5096402;28;20464;-69
2022/07/20 08:15:51;;;;;;;10.33;9.30;;;31.70;54.90;;;;;;5096417;28;20536;-69
2022/07/20 08:18:18;;;;;;;10.23;9.30;;;32.10;52.90;;;;;;5096541;28;20530;-69
2022/07/20 08:20:45;;;;;;;10.67;9.60;;;32.50;52.20;;;;;;5096349;28;20538;-69
2022/07/20 08:23:12;;;;;;;10.43;9.33;;;32.90;51.90;;;;;;5096401;28;20504;-69
2022/07/20 08:25:40;;;;;;;10.23;9.33;;;33.20;50.80;;;;;;5096126;28;20440;-69
2022/07/20 08:28:12;;;;;;;10.80;9.70;;;33.30;50.60;;;;;;5096131;28;22414;-69
2022/07/20 08:30:42;;;;;;;9.70;8.80;;;33.60;49.80;;;;;;5096200;28;20524;-69
2022/07/20 08:33:09;;;;;;;11.60;8.90;;;33.60;49.70;;;;;;5096298;28;21073;-69
2022/07/20 08:35:37;;;;;;;11.60;9.50;;;33.90;49.20;;;;;;5095967;28;20531;-69
2022/07/20 08:38:04;;;;;;;9.73;8.63;;;34.10;48.60;;;;;;5095990;28;20531;-69
2022/07/20 08:40:31;;;;;;;9.33;8.53;;;34.20;48.30;;;;;;5095928;28;20539;-69
2022/07/20 08:42:59;;;;;;;9.27;8.47;;;34.50;47.70;;;;;;5095932;28;20563;-69
2022/07/20 08:45:26;;;;;;;9.67;8.60;;;35.40;47.40;;;;;;5095768;28;20526;-67
2022/07/20 08:47:56;;;;;;;10.03;9.20;;;36.30;47.10;;;;;;5095727;28;20539;-67
2022/07/20 08:50:24;;;;;;;11.33;9.17;;;36.80;43.80;;;;;;5095833;28;20468;-67
2022/07/20 08:52:52;;;;;;;9.80;9.10;;;36.80;42.90;;;;;;5095528;28;20550;-67
2022/07/20 08:55:19;;;;;;;10.50;9.50;;;37.40;42.20;;;;;;5095109;28;20444;-67
2022/07/20 08:57:46;;;;;;;9.30;8.50;;;37.90;41.30;;;;;;5095699;28;20436;-67
2022/07/20 09:00:14;;;;;;;9.30;8.57;;;38.70;41.10;;;;;;5095646;28;20432;-67
2022/07/20 09:02:52;;;;;;;9.20;8.40;;;39.90;40.00;;;;;;5095542;28;20540;-67
2022/07/20 09:05:22;;;;;;;11.27;10.00;;;40.60;36.70;;;;;;5095512;28;20516;-67
2022/07/20 09:07:50;;;;;;;9.47;8.60;;;40.80;35.90;;;;;;5095428;28;20447;-67
2022/07/20 09:10:19;;;;;;;10.03;9.17;;;40.90;35.40;;;;;;5095191;28;20521;-67
2022/07/20 09:12:57;;;;;;;10.07;9.07;;;41.00;35.70;;;;;;5095300;28;20468;-67
2022/07/20 09:15:36;;;;;;;9.60;8.70;;;41.00;34.60;;;;;;5095044;28;20440;-67
2022/07/20 09:18:16;;;;;;;10.30;9.10;;;41.00;34.00;;;;;;5095234;28;20526;-67
2022/07/20 09:20:47;;;;;;;11.30;8.63;;;41.20;33.70;;;;;;5095103;28;20482;-67
2022/07/20 09:23:16;;;;;;;10.30;9.43;;;41.50;33.40;;;;;;5094995;28;20547;-67
2022/07/20 09:25:57;;;;;;;9.43;8.73;;;42.20;32.80;;;;;;5095061;28;20523;-68
2022/07/20 09:28:33;;;;;;;9.63;8.83;;;43.30;31.60;;;;;;5095052;28;20440;-67
2022/07/20 09:31:00;;;;;;;10.10;9.10;;;43.70;30.50;;;;;;5095373;28;20440;-68
2022/07/20 09:33:28;;;;;;;9.70;8.97;;;45.40;29.00;;;;;;5095294;28;20470;-68
2022/07/20 09:35:58;;;;;;;9.43;8.70;;;45.10;28.70;;;;;;5094619;28;21012;-68
2022/07/20 09:38:34;;;;;;;9.43;8.50;;;45.50;28.20;;;;;;5094958;28;20540;-68
2022/07/20 09:41:02;;;;;;;9.47;8.63;;;46.00;27.80;;;;;;5094794;28;20440;-68
2022/07/20 09:43:31;;;;;;;8.93;8.17;;;45.80;27.90;;;;;;5094769;28;20490;-68
2022/07/20 09:46:11;;;;;;;9.10;8.40;;;46.10;28.50;;;;;;5094591;28;20526;-68
2022/07/20 09:48:45;;;;;;;9.47;8.77;;;46.10;26.40;;;;;;5094719;28;20482;-68
2022/07/20 09:51:21;;;;;;;9.00;8.30;;;45.80;27.50;;;;;;5094683;28;20794;-68
2022/07/20 09:53:49;;;;;;;9.93;9.00;;;46.70;26.60;;;;;;5094251;28;21000;-68
2022/07/20 09:56:17;;;;;;;9.90;9.10;;;46.40;26.60;;;;;;5094417;28;21005;-68
2022/07/20 09:58:46;;;;;;;9.97;9.27;;;46.20;26.30;;;;;;5094546;28;20526;-68
2022/07/20 10:01:20;;;;;;;10.20;9.40;;;46.10;26.50;;;;;;5094515;28;20440;-68
2022/07/20 10:03:49;;;;;;;10.17;9.33;;;45.10;26.70;;;;;;5094016;28;20890;-68
2022/07/20 10:06:17;;;;;;;9.67;8.97;;;44.40;27.30;;;;;;5093784;28;20527;-68
2022/07/20 10:08:46;;;;;;;9.30;8.40;;;44.90;26.80;;;;;;5094278;28;20554;-67
2022/07/20 10:11:14;;;;;;;8.97;8.07;;;43.50;26.60;;;;;;5094324;28;20444;-67
2022/07/20 10:13:42;;;;;;;10.90;8.97;;;43.10;27.50;;;;;;5093898;28;20550;-67
2022/07/20 10:16:21;;;;;;;9.33;8.73;;;42.80;27.40;;;;;;5094244;28;20447;-67
2022/07/20 10:18:48;;;;;;;9.73;9.03;;;41.70;28.40;;;;;;5094206;28;20514;-67
2022/07/20 10:21:35;;;;;;;10.07;9.30;;;41.40;28.70;;;;;;5094214;28;20526;-68
2022/07/20 10:24:27;;;;;;;10.47;9.47;;;42.40;28.80;;;;;;5093960;28;20883;-68
2022/07/20 10:26:56;;;;;;;9.40;8.60;;;41.50;28.30;;;;;;5094003;28;20443;-67
2022/07/20 10:29:32;;;;;;;10.20;9.40;;;42.10;28.40;;;;;;5093961;28;20567;-67
2022/07/20 10:32:11;;;;;;;10.13;9.17;;;42.50;28.10;;;;;;5094032;28;20526;-67
2022/07/20 10:34:39;;;;;;;9.90;9.10;;;41.80;28.40;;;;;;5093545;28;20508;-67
2022/07/20 10:37:35;;;;;;;9.10;8.40;;;41.20;28.90;;;;;;5093830;28;20531;-68
2022/07/20 10:40:13;;;;;;;9.77;8.97;;;41.40;29.40;;;;;;5093703;28;20523;-67
2022/07/20 10:42:41;;;;;;;9.67;8.90;;;41.50;29.00;;;;;;5093824;28;20547;-67
2022/07/20 10:45:34;;;;;;;10.50;9.50;;;41.40;29.10;;;;;;5093914;28;20530;-67
2022/07/20 10:48:16;;;;;;;10.30;9.57;;;40.30;30.00;;;;;;5093827;28;20523;-68
2022/07/20 10:50:44;;;;;;;9.70;9.03;;;40.50;30.30;;;;;;5093677;28;20479;-68
2022/07/20 10:53:34;;;;;;;9.73;9.10;;;40.40;30.00;;;;;;5093373;28;20977;-68
2022/07/20 10:56:06;;;;;;;9.70;8.90;;;39.70;30.80;;;;;;5093605;28;20853;-68
2022/07/20 10:58:35;;;;;;;10.47;9.57;;;39.40;31.50;;;;;;5093550;28;20443;-68
2022/07/20 11:01:03;;;;;;;10.40;9.50;;;38.80;32.00;;;;;;5093491;28;20577;-68
2022/07/20 11:03:32;;;;;;;10.27;9.37;;;38.20;33.00;;;;;;5093728;28;20875;-68
2022/07/20 11:06:05;;;;;;;10.27;9.27;;;38.10;35.00;;;;;;5093460;28;20523;-68
2022/07/20 11:08:32;;;;;;;11.23;10.33;;;38.00;33.70;;;;;;5093588;28;20444;-68
2022/07/20 11:11:01;;;;;;;10.20;9.40;;;37.60;34.40;;;;;;5093263;28;20567;-68
2022/07/20 11:13:29;;;;;;;10.70;9.77;;;37.40;35.40;;;;;;5093541;28;20517;-68
2022/07/20 11:15:59;;;;;;;9.73;8.93;;;37.40;35.80;;;;;;5093628;28;20536;-68
2022/07/20 11:18:28;;;;;;;9.87;9.17;;;37.30;34.40;;;;;;5095748;28;20534;-68
2022/07/20 11:20:58;;;;;;;10.20;9.53;;;37.00;34.20;;;;;;5097478;28;20527;-68
2022/07/20 11:23:26;;;;;;;10.50;9.63;;;36.50;34.70;;;;;;5097256;28;20525;-68
2022/07/20 11:25:55;;;;;;;10.37;9.50;;;36.50;35.80;;;;;;5097135;28;20440;-68
2022/07/20 11:28:24;;;;;;;10.80;10.00;;;36.40;35.40;;;;;;5097295;28;20510;-68
2022/07/20 11:30:54;;;;;;;9.93;9.30;;;36.30;35.90;;;;;;5097322;28;20480;-68
2022/07/20 11:33:29;;;;;;;10.33;9.63;;;36.40;35.30;;;;;;5097182;28;20892;-68
2022/07/20 11:35:59;;;;;;;10.03;9.33;;;36.30;35.10;;;;;;5096898;28;20526;-68
2022/07/20 11:38:35;;;;;;;11.97;10.67;;;36.10;35.20;;;;;;5097179;28;20498;-68
2022/07/20 11:41:04;;;;;;;11.20;10.10;;;36.10;36.50;;;;;;5097223;28;20526;-68
2022/07/20 11:43:31;;;;;;;10.60;9.83;;;35.70;37.00;;;;;;5096986;28;21045;-68
2022/07/20 11:46:14;;;;;;;11.17;10.17;;;35.70;37.20;;;;;;5096642;28;20531;-69
2022/07/20 11:48:43;;;;;;;10.33;9.50;;;35.80;37.40;;;;;;5097091;28;20523;-68
2022/07/20 11:51:11;;;;;;;12.47;9.13;;;35.50;36.60;;;;;;5096907;28;20473;-68
2022/07/20 11:53:40;;;;;;;10.50;9.60;;;35.60;37.00;;;;;;5096619;28;20556;-68
2022/07/20 11:56:12;;;;;;;11.10;10.30;;;35.40;37.20;;;;;;5096678;28;20451;-68
2022/07/20 11:58:40;;;;;;;10.70;9.90;;;35.60;37.10;;;;;;5096731;28;20444;-68
2022/07/20 12:01:09;;;;;;;11.30;10.30;;;35.80;37.20;;;;;;5096684;28;20546;-68
2022/07/20 12:03:40;;;;;;;11.43;10.53;;;36.10;37.50;;;;;;5096746;28;20466;-68
2022/07/20 12:06:09;;;;;;;11.00;10.10;;;36.50;36.30;;;;;;5096574;28;20871;-68
2022/07/20 12:08:37;;;;;;;11.80;10.80;;;36.50;36.70;;;;;;5096640;28;20440;-68
2022/07/20 12:11:05;;;;;;;11.53;10.63;;;36.70;36.10;;;;;;5096505;28;20566;-68
2022/07/20 12:13:32;;;;;;;11.43;10.53;;;36.80;36.00;;;;;;5096252;28;20550;-68
2022/07/20 12:16:01;;;;;;;11.03;10.27;;;36.60;35.80;;;;;;5096194;28;21020;-68
2022/07/20 12:18:40;;;;;;;11.83;10.80;;;36.30;36.20;;;;;;5096305;28;20488;-69
2022/07/20 12:21:09;;;;;;;11.13;10.10;;;36.10;37.10;;;;;;5096450;28;20527;-69
2022/07/20 12:23:37;;;;;;;11.23;10.23;;;36.00;36.60;;;;;;5096194;28;20555;-69
2022/07/20 12:26:19;;;;;;;12.00;10.93;;;35.90;37.60;;;;;;5096225;28;20531;-69
2022/07/20 12:28:46;;;;;;;11.97;11.07;;;36.00;37.30;;;;;;5095803;28;20468;-69
2022/07/20 12:31:14;;;;;;;12.10;10.93;;;36.00;36.90;;;;;;5096197;28;20559;-69
2022/07/20 12:34:03;;;;;;;11.50;10.80;;;36.10;37.10;;;;;;5096051;28;21014;-70
2022/07/20 12:36:39;;;;;;;13.23;12.20;;;36.20;37.40;;;;;;5096182;28;20471;-68
2022/07/20 12:39:08;;;;;;;12.13;11.10;;;35.90;37.50;;;;;;5096111;28;20527;-69
2022/07/20 12:41:35;;;;;;;11.57;10.63;;;35.80;37.80;;;;;;5096079;28;20877;-69
2022/07/20 12:44:23;;;;;;;11.90;11.10;;;35.90;38.30;;;;;;5095626;28;20637;-69
2022/07/20 12:46:50;;;;;;;13.23;12.23;;;35.90;38.50;;;;;;5095749;28;20534;-69
2022/07/20 12:49:21;;;;;;;12.90;12.00;;;35.90;38.40;;;;;;5095740;28;20531;-68
2022/07/20 12:51:49;;;;;;;13.70;12.70;;;35.70;38.80;;;;;;5095763;28;20523;-68
2022/07/20 12:54:16;;;;;;;18.10;13.70;;;35.40;39.10;;;;;;5095349;28;20562;-69